sensor_id;sensor_type;location;lat;lon;timestamp;P1;durP1;ratioP1;P2;durP2;ratioP2
68653;SDS011;55636;51.108;13.622;2024-02-14T00:00:54;3.10;;;2.80;;
68653;SDS011;55636;51.108;13.622;2024-02-14T00:01:58;3.10;;;2.80;;
68653;SDS011;55636;51.108;13.622;2024-02-14T00:03:00;3.23;;;2.73;;
68653;SDS011;55636;51.108;13.622;2024-02-14T00:04:03;3.77;;;2.80;;
68653;SDS011;55636;51.108;13.622;2024-02-14T00:05:06;4.00;;;3.10;;
68653;SDS011;55636;51.108;13.622;2024-02-14T00:06:09;3.47;;;3.17;;
68653;SDS011;55636;51.108;13.622;2024-02-14T00:07:12;3.23;;;2.50;;
68653;SDS011;55636;51.108;13.622;2024-02-14T00:08:14;3.73;;;2.93;;
68653;SDS011;55636;51.108;13.622;2024-02-14T00:09:17;3.00;;;2.70;;
68653;SDS011;55636;51.108;13.622;2024-02-14T00:10:19;2.97;;;2.60;;
68653;SDS011;55636;51.108;13.622;2024-02-14T00:11:21;3.03;;;2.60;;
68653;SDS011;55636;51.108;13.622;2024-02-14T00:12:25;3.87;;;3.20;;
68653;SDS011;55636;51.108;13.622;2024-02-14T00:13:28;3.23;;;2.83;;
68653;SDS011;55636;51.108;13.622;2024-02-14T00:14:30;4.30;;;3.10;;
68653;SDS011;55636;51.108;13.622;2024-02-14T00:15:32;3.60;;;3.10;;
68653;SDS011;55636;51.108;13.622;2024-02-14T00:16:35;3.67;;;3.07;;
68653;SDS011;55636;51.108;13.622;2024-02-14T00:17:38;3.53;;;2.97;;
68653;SDS011;55636;51.108;13.622;2024-02-14T00:18:41;3.23;;;2.80;;
68653;SDS011;55636;51.108;13.622;2024-02-14T00:19:43;3.60;;;2.93;;
68653;SDS011;55636;51.108;13.622;2024-02-14T00:20:46;4.00;;;2.93;;
68653;SDS011;55636;51.108;13.622;2024-02-14T00:21:48;4.43;;;2.90;;
68653;SDS011;55636;51.108;13.622;2024-02-14T00:22:50;3.83;;;3.00;;
68653;SDS011;55636;51.108;13.622;2024-02-14T00:23:53;3.03;;;2.60;;
68653;SDS011;55636;51.108;13.622;2024-02-14T00:24:56;4.00;;;3.03;;
68653;SDS011;55636;51.108;13.622;2024-02-14T00:25:58;2.87;;;2.63;;
68653;SDS011;55636;51.108;13.622;2024-02-14T00:27:00;4.30;;;3.00;;
68653;SDS011;55636;51.108;13.622;2024-02-14T00:28:05;3.87;;;3.00;;
68653;SDS011;55636;51.108;13.622;2024-02-14T00:29:08;4.77;;;3.03;;
68653;SDS011;55636;51.108;13.622;2024-02-14T00:30:10;3.40;;;3.07;;
68653;SDS011;55636;51.108;13.622;2024-02-14T00:31:13;3.37;;;2.80;;
68653;SDS011;55636;51.108;13.622;2024-02-14T00:32:15;3.00;;;2.70;;
68653;SDS011;55636;51.108;13.622;2024-02-14T00:33:17;3.73;;;2.80;;
68653;SDS011;55636;51.108;13.622;2024-02-14T00:34:22;3.30;;;2.70;;
68653;SDS011;55636;51.108;13.622;2024-02-14T00:35:26;3.37;;;2.80;;
68653;SDS011;55636;51.108;13.622;2024-02-14T00:36:28;2.97;;;2.70;;
68653;SDS011;55636;51.108;13.622;2024-02-14T00:37:31;3.63;;;2.83;;
68653;SDS011;55636;51.108;13.622;2024-02-14T00:38:35;3.20;;;2.90;;
68653;SDS011;55636;51.108;13.622;2024-02-14T00:39:38;3.50;;;2.77;;
68653;SDS011;55636;51.108;13.622;2024-02-14T00:40:40;3.63;;;3.00;;
68653;SDS011;55636;51.108;13.622;2024-02-14T00:41:43;3.43;;;2.70;;
68653;SDS011;55636;51.108;13.622;2024-02-14T00:42:45;3.53;;;2.80;;
68653;SDS011;55636;51.108;13.622;2024-02-14T00:43:47;2.87;;;2.67;;
68653;SDS011;55636;51.108;13.622;2024-02-14T00:44:50;3.57;;;2.70;;
68653;SDS011;55636;51.108;13.622;2024-02-14T00:45:53;4.00;;;2.80;;
68653;SDS011;55636;51.108;13.622;2024-02-14T00:46:59;2.93;;;2.67;;
68653;SDS011;55636;51.108;13.622;2024-02-14T00:48:01;3.47;;;2.90;;
68653;SDS011;55636;51.108;13.622;2024-02-14T00:49:06;3.53;;;2.90;;
68653;SDS011;55636;51.108;13.622;2024-02-14T00:50:09;3.00;;;2.70;;
68653;SDS011;55636;51.108;13.622;2024-02-14T00:51:11;3.53;;;2.97;;
68653;SDS011;55636;51.108;13.622;2024-02-14T00:52:14;4.27;;;2.77;;
68653;SDS011;55636;51.108;13.622;2024-02-14T00:53:18;3.97;;;2.80;;
68653;SDS011;55636;51.108;13.622;2024-02-14T00:54:21;3.70;;;2.87;;
68653;SDS011;55636;51.108;13.622;2024-02-14T00:55:23;3.20;;;2.90;;
68653;SDS011;55636;51.108;13.622;2024-02-14T00:56:26;4.53;;;3.20;;
68653;SDS011;55636;51.108;13.622;2024-02-14T00:57:28;3.57;;;3.23;;
68653;SDS011;55636;51.108;13.622;2024-02-14T00:58:32;3.60;;;3.00;;
68653;SDS011;55636;51.108;13.622;2024-02-14T00:59:34;3.47;;;3.10;;
68653;SDS011;55636;51.108;13.622;2024-02-14T01:00:36;3.60;;;3.13;;
68653;SDS011;55636;51.108;13.622;2024-02-14T01:01:39;3.93;;;3.23;;
68653;SDS011;55636;51.108;13.622;2024-02-14T01:02:41;3.57;;;3.00;;
68653;SDS011;55636;51.108;13.622;2024-02-14T01:03:44;3.73;;;3.13;;
68653;SDS011;55636;51.108;13.622;2024-02-14T01:04:46;3.00;;;2.70;;
68653;SDS011;55636;51.108;13.622;2024-02-14T01:05:49;3.53;;;3.23;;
68653;SDS011;55636;51.108;13.622;2024-02-14T01:06:53;3.53;;;3.20;;
68653;SDS011;55636;51.108;13.622;2024-02-14T01:07:56;3.60;;;3.20;;
68653;SDS011;55636;51.108;13.622;2024-02-14T01:08:58;3.40;;;3.07;;
68653;SDS011;55636;51.108;13.622;2024-02-14T01:10:00;3.20;;;2.90;;
68653;SDS011;55636;51.108;13.622;2024-02-14T01:11:03;3.13;;;2.83;;
68653;SDS011;55636;51.108;13.622;2024-02-14T01:12:06;3.40;;;3.10;;
68653;SDS011;55636;51.108;13.622;2024-02-14T01:13:09;3.30;;;3.00;;
68653;SDS011;55636;51.108;13.622;2024-02-14T01:14:11;3.70;;;3.07;;
68653;SDS011;55636;51.108;13.622;2024-02-14T01:15:16;4.43;;;2.90;;
68653;SDS011;55636;51.108;13.622;2024-02-14T01:16:19;3.43;;;3.10;;
68653;SDS011;55636;51.108;13.622;2024-02-14T01:17:21;3.30;;;3.00;;
68653;SDS011;55636;51.108;13.622;2024-02-14T01:18:24;3.40;;;2.90;;
68653;SDS011;55636;51.108;13.622;2024-02-14T01:19:27;3.93;;;3.10;;
68653;SDS011;55636;51.108;13.622;2024-02-14T01:20:31;3.77;;;3.00;;
68653;SDS011;55636;51.108;13.622;2024-02-14T01:21:34;3.70;;;3.20;;
68653;SDS011;55636;51.108;13.622;2024-02-14T01:22:36;4.40;;;3.17;;
68653;SDS011;55636;51.108;13.622;2024-02-14T01:23:39;4.70;;;3.30;;
68653;SDS011;55636;51.108;13.622;2024-02-14T01:24:42;3.80;;;3.00;;
68653;SDS011;55636;51.108;13.622;2024-02-14T01:25:45;3.63;;;3.17;;
68653;SDS011;55636;51.108;13.622;2024-02-14T01:26:47;4.30;;;3.10;;
68653;SDS011;55636;51.108;13.622;2024-02-14T01:27:50;3.00;;;2.80;;
68653;SDS011;55636;51.108;13.622;2024-02-14T01:28:55;3.43;;;2.97;;
68653;SDS011;55636;51.108;13.622;2024-02-14T01:29:59;3.20;;;2.90;;
68653;SDS011;55636;51.108;13.622;2024-02-14T01:31:02;3.63;;;3.00;;
68653;SDS011;55636;51.108;13.622;2024-02-14T01:32:05;3.40;;;2.90;;
68653;SDS011;55636;51.108;13.622;2024-02-14T01:33:08;3.33;;;2.90;;
68653;SDS011;55636;51.108;13.622;2024-02-14T01:34:11;4.03;;;3.33;;
68653;SDS011;55636;51.108;13.622;2024-02-14T01:35:14;3.47;;;2.87;;
68653;SDS011;55636;51.108;13.622;2024-02-14T01:36:16;3.57;;;2.83;;
68653;SDS011;55636;51.108;13.622;2024-02-14T01:37:18;4.30;;;2.87;;
68653;SDS011;55636;51.108;13.622;2024-02-14T01:38:23;3.43;;;2.90;;
68653;SDS011;55636;51.108;13.622;2024-02-14T01:39:25;3.00;;;2.80;;
68653;SDS011;55636;51.108;13.622;2024-02-14T01:40:28;4.53;;;3.03;;
68653;SDS011;55636;51.108;13.622;2024-02-14T01:41:30;3.30;;;3.00;;
68653;SDS011;55636;51.108;13.622;2024-02-14T01:42:33;3.10;;;2.80;;
68653;SDS011;55636;51.108;13.622;2024-02-14T01:43:35;3.90;;;2.63;;
68653;SDS011;55636;51.108;13.622;2024-02-14T01:44:38;3.83;;;2.90;;
68653;SDS011;55636;51.108;13.622;2024-02-14T01:45:41;3.10;;;2.80;;
68653;SDS011;55636;51.108;13.622;2024-02-14T01:46:44;3.10;;;2.80;;
68653;SDS011;55636;51.108;13.622;2024-02-14T01:47:47;3.60;;;2.80;;
68653;SDS011;55636;51.108;13.622;2024-02-14T01:48:50;3.00;;;2.70;;
68653;SDS011;55636;51.108;13.622;2024-02-14T01:49:53;3.17;;;2.70;;
68653;SDS011;55636;51.108;13.622;2024-02-14T01:50:55;3.77;;;2.97;;
68653;SDS011;55636;51.108;13.622;2024-02-14T01:51:59;2.97;;;2.63;;
68653;SDS011;55636;51.108;13.622;2024-02-14T01:53:04;3.10;;;2.80;;
68653;SDS011;55636;51.108;13.622;2024-02-14T01:54:06;3.23;;;2.80;;
68653;SDS011;55636;51.108;13.622;2024-02-14T01:55:09;3.83;;;2.50;;
68653;SDS011;55636;51.108;13.622;2024-02-14T01:56:14;3.90;;;2.60;;
68653;SDS011;55636;51.108;13.622;2024-02-14T01:57:17;3.03;;;2.50;;
68653;SDS011;55636;51.108;13.622;2024-02-14T01:58:20;2.90;;;2.60;;
68653;SDS011;55636;51.108;13.622;2024-02-14T01:59:23;4.17;;;2.80;;
68653;SDS011;55636;51.108;13.622;2024-02-14T02:00:26;3.03;;;2.60;;
68653;SDS011;55636;51.108;13.622;2024-02-14T02:01:30;3.37;;;2.57;;
68653;SDS011;55636;51.108;13.622;2024-02-14T02:02:36;3.63;;;3.30;;
68653;SDS011;55636;51.108;13.622;2024-02-14T02:03:42;3.20;;;2.60;;
68653;SDS011;55636;51.108;13.622;2024-02-14T02:04:44;4.37;;;2.47;;
68653;SDS011;55636;51.108;13.622;2024-02-14T02:05:46;3.23;;;2.60;;
68653;SDS011;55636;51.108;13.622;2024-02-14T02:06:49;3.40;;;2.70;;
68653;SDS011;55636;51.108;13.622;2024-02-14T02:07:51;3.47;;;2.77;;
68653;SDS011;55636;51.108;13.622;2024-02-14T02:08:53;3.50;;;2.80;;
68653;SDS011;55636;51.108;13.622;2024-02-14T02:09:56;3.03;;;2.73;;
68653;SDS011;55636;51.108;13.622;2024-02-14T02:10:58;3.73;;;2.87;;
68653;SDS011;55636;51.108;13.622;2024-02-14T02:12:01;2.80;;;2.57;;
68653;SDS011;55636;51.108;13.622;2024-02-14T02:13:03;2.90;;;2.57;;
68653;SDS011;55636;51.108;13.622;2024-02-14T02:14:06;3.40;;;2.50;;
68653;SDS011;55636;51.108;13.622;2024-02-14T02:15:09;3.40;;;2.50;;
68653;SDS011;55636;51.108;13.622;2024-02-14T02:16:15;3.63;;;2.53;;
68653;SDS011;55636;51.108;13.622;2024-02-14T02:17:17;3.67;;;2.50;;
68653;SDS011;55636;51.108;13.622;2024-02-14T02:18:20;4.27;;;2.80;;
68653;SDS011;55636;51.108;13.622;2024-02-14T02:19:22;4.53;;;2.80;;
68653;SDS011;55636;51.108;13.622;2024-02-14T02:20:25;3.20;;;2.70;;
68653;SDS011;55636;51.108;13.622;2024-02-14T02:21:30;6.90;;;2.70;;
68653;SDS011;55636;51.108;13.622;2024-02-14T02:22:32;3.27;;;2.50;;
68653;SDS011;55636;51.108;13.622;2024-02-14T02:23:37;4.03;;;2.90;;
68653;SDS011;55636;51.108;13.622;2024-02-14T02:24:40;2.80;;;2.50;;
68653;SDS011;55636;51.108;13.622;2024-02-14T02:25:43;5.90;;;2.83;;
68653;SDS011;55636;51.108;13.622;2024-02-14T02:26:46;3.47;;;2.63;;
68653;SDS011;55636;51.108;13.622;2024-02-14T02:27:48;3.33;;;2.57;;
68653;SDS011;55636;51.108;13.622;2024-02-14T02:28:51;2.90;;;2.60;;
68653;SDS011;55636;51.108;13.622;2024-02-14T02:29:53;4.17;;;2.50;;
68653;SDS011;55636;51.108;13.622;2024-02-14T02:30:56;3.30;;;2.83;;
68653;SDS011;55636;51.108;13.622;2024-02-14T02:31:58;3.20;;;2.80;;
68653;SDS011;55636;51.108;13.622;2024-02-14T02:33:01;3.17;;;2.70;;
68653;SDS011;55636;51.108;13.622;2024-02-14T02:34:04;2.90;;;2.60;;
68653;SDS011;55636;51.108;13.622;2024-02-14T02:35:07;2.80;;;2.60;;
68653;SDS011;55636;51.108;13.622;2024-02-14T02:36:11;3.33;;;2.87;;
68653;SDS011;55636;51.108;13.622;2024-02-14T02:37:14;2.90;;;2.60;;
68653;SDS011;55636;51.108;13.622;2024-02-14T02:38:18;3.20;;;2.90;;
68653;SDS011;55636;51.108;13.622;2024-02-14T02:39:24;2.83;;;2.63;;
68653;SDS011;55636;51.108;13.622;2024-02-14T02:40:26;3.50;;;2.90;;
68653;SDS011;55636;51.108;13.622;2024-02-14T02:41:32;3.30;;;2.73;;
68653;SDS011;55636;51.108;13.622;2024-02-14T02:42:35;3.20;;;2.90;;
68653;SDS011;55636;51.108;13.622;2024-02-14T02:43:38;3.77;;;3.10;;
68653;SDS011;55636;51.108;13.622;2024-02-14T02:44:40;4.03;;;3.20;;
68653;SDS011;55636;51.108;13.622;2024-02-14T02:45:44;3.87;;;3.20;;
68653;SDS011;55636;51.108;13.622;2024-02-14T02:46:46;3.10;;;2.80;;
68653;SDS011;55636;51.108;13.622;2024-02-14T02:47:49;4.63;;;3.40;;
68653;SDS011;55636;51.108;13.622;2024-02-14T02:48:54;4.10;;;3.30;;
68653;SDS011;55636;51.108;13.622;2024-02-14T02:49:57;4.10;;;3.40;;
68653;SDS011;55636;51.108;13.622;2024-02-14T02:51:01;3.90;;;3.57;;
68653;SDS011;55636;51.108;13.622;2024-02-14T02:52:04;3.90;;;3.50;;
68653;SDS011;55636;51.108;13.622;2024-02-14T02:53:06;3.90;;;3.50;;
68653;SDS011;55636;51.108;13.622;2024-02-14T02:54:09;5.00;;;4.00;;
68653;SDS011;55636;51.108;13.622;2024-02-14T02:55:13;5.47;;;4.60;;
68653;SDS011;55636;51.108;13.622;2024-02-14T02:56:16;5.17;;;4.67;;
68653;SDS011;55636;51.108;13.622;2024-02-14T02:57:19;5.60;;;4.73;;
68653;SDS011;55636;51.108;13.622;2024-02-14T02:58:21;6.17;;;4.50;;
68653;SDS011;55636;51.108;13.622;2024-02-14T02:59:24;4.87;;;4.20;;
68653;SDS011;55636;51.108;13.622;2024-02-14T03:00:26;4.77;;;3.90;;
68653;SDS011;55636;51.108;13.622;2024-02-14T03:01:34;4.47;;;3.67;;
68653;SDS011;55636;51.108;13.622;2024-02-14T03:02:39;4.80;;;3.40;;
68653;SDS011;55636;51.108;13.622;2024-02-14T03:03:47;4.20;;;3.30;;
68653;SDS011;55636;51.108;13.622;2024-02-14T03:04:49;3.87;;;3.03;;
68653;SDS011;55636;51.108;13.622;2024-02-14T03:05:54;3.20;;;2.90;;
68653;SDS011;55636;51.108;13.622;2024-02-14T03:06:59;4.20;;;3.00;;
68653;SDS011;55636;51.108;13.622;2024-02-14T03:08:02;2.80;;;2.60;;
68653;SDS011;55636;51.108;13.622;2024-02-14T03:09:04;3.10;;;2.70;;
68653;SDS011;55636;51.108;13.622;2024-02-14T03:10:08;3.30;;;2.73;;
68653;SDS011;55636;51.108;13.622;2024-02-14T03:11:10;3.20;;;2.90;;
68653;SDS011;55636;51.108;13.622;2024-02-14T03:12:13;3.00;;;2.63;;
68653;SDS011;55636;51.108;13.622;2024-02-14T03:13:18;3.57;;;2.53;;
68653;SDS011;55636;51.108;13.622;2024-02-14T03:14:22;3.20;;;2.50;;
68653;SDS011;55636;51.108;13.622;2024-02-14T03:15:24;3.17;;;2.60;;
68653;SDS011;55636;51.108;13.622;2024-02-14T03:16:27;2.60;;;2.40;;
68653;SDS011;55636;51.108;13.622;2024-02-14T03:17:31;3.17;;;2.50;;
68653;SDS011;55636;51.108;13.622;2024-02-14T03:18:34;2.73;;;2.50;;
68653;SDS011;55636;51.108;13.622;2024-02-14T03:19:36;3.50;;;2.63;;
68653;SDS011;55636;51.108;13.622;2024-02-14T03:20:41;2.63;;;2.30;;
68653;SDS011;55636;51.108;13.622;2024-02-14T03:21:43;3.00;;;2.70;;
68653;SDS011;55636;51.108;13.622;2024-02-14T03:22:48;2.73;;;2.40;;
68653;SDS011;55636;51.108;13.622;2024-02-14T03:23:51;3.23;;;2.50;;
68653;SDS011;55636;51.108;13.622;2024-02-14T03:24:56;2.67;;;2.30;;
68653;SDS011;55636;51.108;13.622;2024-02-14T03:26:00;3.40;;;2.70;;
68653;SDS011;55636;51.108;13.622;2024-02-14T03:27:03;2.60;;;2.40;;
68653;SDS011;55636;51.108;13.622;2024-02-14T03:28:06;2.90;;;2.60;;
68653;SDS011;55636;51.108;13.622;2024-02-14T03:29:11;2.70;;;2.50;;
68653;SDS011;55636;51.108;13.622;2024-02-14T03:30:14;3.30;;;2.50;;
68653;SDS011;55636;51.108;13.622;2024-02-14T03:31:18;3.70;;;2.50;;
68653;SDS011;55636;51.108;13.622;2024-02-14T03:32:21;2.77;;;2.40;;
68653;SDS011;55636;51.108;13.622;2024-02-14T03:33:25;3.23;;;2.50;;
68653;SDS011;55636;51.108;13.622;2024-02-14T03:34:28;3.50;;;2.63;;
68653;SDS011;55636;51.108;13.622;2024-02-14T03:35:32;2.77;;;2.40;;
68653;SDS011;55636;51.108;13.622;2024-02-14T03:36:38;2.97;;;2.43;;
68653;SDS011;55636;51.108;13.622;2024-02-14T03:37:41;3.57;;;2.50;;
68653;SDS011;55636;51.108;13.622;2024-02-14T03:38:44;2.53;;;2.33;;
68653;SDS011;55636;51.108;13.622;2024-02-14T03:39:48;3.60;;;2.70;;
68653;SDS011;55636;51.108;13.622;2024-02-14T03:40:51;2.73;;;2.50;;
68653;SDS011;55636;51.108;13.622;2024-02-14T03:41:53;2.87;;;2.10;;
68653;SDS011;55636;51.108;13.622;2024-02-14T03:42:56;3.00;;;2.50;;
68653;SDS011;55636;51.108;13.622;2024-02-14T03:43:59;2.30;;;2.10;;
68653;SDS011;55636;51.108;13.622;2024-02-14T03:45:03;3.00;;;2.20;;
68653;SDS011;55636;51.108;13.622;2024-02-14T03:46:07;2.77;;;2.27;;
68653;SDS011;55636;51.108;13.622;2024-02-14T03:47:10;2.40;;;2.20;;
68653;SDS011;55636;51.108;13.622;2024-02-14T03:48:12;3.03;;;2.20;;
68653;SDS011;55636;51.108;13.622;2024-02-14T03:49:15;2.40;;;2.20;;
68653;SDS011;55636;51.108;13.622;2024-02-14T03:50:17;4.30;;;2.50;;
68653;SDS011;55636;51.108;13.622;2024-02-14T03:51:20;2.37;;;2.17;;
68653;SDS011;55636;51.108;13.622;2024-02-14T03:52:23;3.57;;;2.40;;
68653;SDS011;55636;51.108;13.622;2024-02-14T03:53:27;3.07;;;2.50;;
68653;SDS011;55636;51.108;13.622;2024-02-14T03:54:29;2.53;;;2.30;;
68653;SDS011;55636;51.108;13.622;2024-02-14T03:55:32;2.47;;;2.17;;
68653;SDS011;55636;51.108;13.622;2024-02-14T03:56:34;3.03;;;2.20;;
68653;SDS011;55636;51.108;13.622;2024-02-14T03:57:39;2.20;;;2.00;;
68653;SDS011;55636;51.108;13.622;2024-02-14T03:58:42;3.77;;;2.53;;
68653;SDS011;55636;51.108;13.622;2024-02-14T03:59:46;2.67;;;2.30;;
68653;SDS011;55636;51.108;13.622;2024-02-14T04:00:51;3.37;;;2.10;;
68653;SDS011;55636;51.108;13.622;2024-02-14T04:01:53;2.53;;;2.20;;
68653;SDS011;55636;51.108;13.622;2024-02-14T04:02:56;2.37;;;2.17;;
68653;SDS011;55636;51.108;13.622;2024-02-14T04:04:01;2.27;;;2.07;;
68653;SDS011;55636;51.108;13.622;2024-02-14T04:05:04;2.57;;;2.37;;
68653;SDS011;55636;51.108;13.622;2024-02-14T04:06:09;2.60;;;2.40;;
68653;SDS011;55636;51.108;13.622;2024-02-14T04:07:12;3.23;;;2.53;;
68653;SDS011;55636;51.108;13.622;2024-02-14T04:08:15;3.33;;;2.40;;
68653;SDS011;55636;51.108;13.622;2024-02-14T04:09:17;3.13;;;2.30;;
68653;SDS011;55636;51.108;13.622;2024-02-14T04:10:20;2.37;;;2.03;;
68653;SDS011;55636;51.108;13.622;2024-02-14T04:11:22;2.40;;;2.20;;
68653;SDS011;55636;51.108;13.622;2024-02-14T04:12:25;2.57;;;2.33;;
68653;SDS011;55636;51.108;13.622;2024-02-14T04:13:27;4.10;;;2.57;;
68653;SDS011;55636;51.108;13.622;2024-02-14T04:14:30;3.03;;;2.20;;
68653;SDS011;55636;51.108;13.622;2024-02-14T04:15:33;2.47;;;2.10;;
68653;SDS011;55636;51.108;13.622;2024-02-14T04:16:35;3.37;;;2.20;;
68653;SDS011;55636;51.108;13.622;2024-02-14T04:17:41;2.40;;;2.20;;
68653;SDS011;55636;51.108;13.622;2024-02-14T04:18:44;2.77;;;2.03;;
68653;SDS011;55636;51.108;13.622;2024-02-14T04:19:46;2.90;;;2.27;;
68653;SDS011;55636;51.108;13.622;2024-02-14T04:20:49;2.30;;;2.10;;
68653;SDS011;55636;51.108;13.622;2024-02-14T04:21:51;2.50;;;2.20;;
68653;SDS011;55636;51.108;13.622;2024-02-14T04:22:54;2.37;;;2.17;;
68653;SDS011;55636;51.108;13.622;2024-02-14T04:23:56;2.67;;;2.30;;
68653;SDS011;55636;51.108;13.622;2024-02-14T04:25:00;3.60;;;2.30;;
68653;SDS011;55636;51.108;13.622;2024-02-14T04:26:03;2.97;;;2.10;;
68653;SDS011;55636;51.108;13.622;2024-02-14T04:27:05;2.00;;;1.80;;
68653;SDS011;55636;51.108;13.622;2024-02-14T04:28:08;2.60;;;2.40;;
68653;SDS011;55636;51.108;13.622;2024-02-14T04:29:14;3.00;;;2.30;;
68653;SDS011;55636;51.108;13.622;2024-02-14T04:30:16;3.27;;;2.40;;
68653;SDS011;55636;51.108;13.622;2024-02-14T04:31:19;4.23;;;2.20;;
68653;SDS011;55636;51.108;13.622;2024-02-14T04:32:21;2.40;;;2.20;;
68653;SDS011;55636;51.108;13.622;2024-02-14T04:33:24;2.43;;;2.23;;
68653;SDS011;55636;51.108;13.622;2024-02-14T04:34:27;2.60;;;2.20;;
68653;SDS011;55636;51.108;13.622;2024-02-14T04:35:30;2.50;;;2.00;;
68653;SDS011;55636;51.108;13.622;2024-02-14T04:36:33;2.63;;;2.30;;
68653;SDS011;55636;51.108;13.622;2024-02-14T04:37:37;3.60;;;2.50;;
68653;SDS011;55636;51.108;13.622;2024-02-14T04:38:39;3.30;;;2.40;;
68653;SDS011;55636;51.108;13.622;2024-02-14T04:39:43;3.87;;;2.70;;
68653;SDS011;55636;51.108;13.622;2024-02-14T04:40:45;2.60;;;2.40;;
68653;SDS011;55636;51.108;13.622;2024-02-14T04:41:47;2.67;;;2.47;;
68653;SDS011;55636;51.108;13.622;2024-02-14T04:43:02;2.87;;;2.67;;
68653;SDS011;55636;51.108;13.622;2024-02-14T04:44:05;2.93;;;2.47;;
68653;SDS011;55636;51.108;13.622;2024-02-14T04:45:10;2.67;;;2.37;;
68653;SDS011;55636;51.108;13.622;2024-02-14T04:46:12;2.77;;;2.50;;
68653;SDS011;55636;51.108;13.622;2024-02-14T04:47:15;2.80;;;2.60;;
68653;SDS011;55636;51.108;13.622;2024-02-14T04:48:17;3.17;;;2.80;;
68653;SDS011;55636;51.108;13.622;2024-02-14T04:49:20;2.80;;;2.47;;
68653;SDS011;55636;51.108;13.622;2024-02-14T04:50:23;2.70;;;2.50;;
68653;SDS011;55636;51.108;13.622;2024-02-14T04:51:25;3.30;;;2.77;;
68653;SDS011;55636;51.108;13.622;2024-02-14T04:52:28;2.40;;;2.20;;
68653;SDS011;55636;51.108;13.622;2024-02-14T04:53:30;3.17;;;2.50;;
68653;SDS011;55636;51.108;13.622;2024-02-14T04:54:33;2.70;;;2.50;;
68653;SDS011;55636;51.108;13.622;2024-02-14T04:55:36;3.27;;;2.63;;
68653;SDS011;55636;51.108;13.622;2024-02-14T04:56:38;2.50;;;2.20;;
68653;SDS011;55636;51.108;13.622;2024-02-14T04:57:41;2.70;;;2.17;;
68653;SDS011;55636;51.108;13.622;2024-02-14T04:58:44;3.10;;;2.50;;
68653;SDS011;55636;51.108;13.622;2024-02-14T04:59:46;2.73;;;2.30;;
68653;SDS011;55636;51.108;13.622;2024-02-14T05:00:48;2.73;;;2.30;;
68653;SDS011;55636;51.108;13.622;2024-02-14T05:01:51;3.10;;;2.37;;
68653;SDS011;55636;51.108;13.622;2024-02-14T05:02:55;2.73;;;2.30;;
68653;SDS011;55636;51.108;13.622;2024-02-14T05:03:59;2.87;;;2.20;;
68653;SDS011;55636;51.108;13.622;2024-02-14T05:05:01;3.63;;;2.40;;
68653;SDS011;55636;51.108;13.622;2024-02-14T05:06:05;2.27;;;2.07;;
68653;SDS011;55636;51.108;13.622;2024-02-14T05:07:08;2.57;;;2.23;;
68653;SDS011;55636;51.108;13.622;2024-02-14T05:08:11;2.90;;;2.27;;
68653;SDS011;55636;51.108;13.622;2024-02-14T05:09:13;2.87;;;2.53;;
68653;SDS011;55636;51.108;13.622;2024-02-14T05:10:17;4.47;;;2.43;;
68653;SDS011;55636;51.108;13.622;2024-02-14T05:11:19;2.77;;;2.47;;
68653;SDS011;55636;51.108;13.622;2024-02-14T05:12:21;3.43;;;2.60;;
68653;SDS011;55636;51.108;13.622;2024-02-14T05:13:24;2.40;;;2.20;;
68653;SDS011;55636;51.108;13.622;2024-02-14T05:14:26;3.07;;;2.77;;
68653;SDS011;55636;51.108;13.622;2024-02-14T05:15:33;2.53;;;2.20;;
68653;SDS011;55636;51.108;13.622;2024-02-14T05:16:37;2.70;;;2.30;;
68653;SDS011;55636;51.108;13.622;2024-02-14T05:17:44;3.17;;;2.50;;
68653;SDS011;55636;51.108;13.622;2024-02-14T05:18:46;2.70;;;2.50;;
68653;SDS011;55636;51.108;13.622;2024-02-14T05:19:50;2.80;;;2.50;;
68653;SDS011;55636;51.108;13.622;2024-02-14T05:20:52;2.83;;;2.30;;
68653;SDS011;55636;51.108;13.622;2024-02-14T05:21:55;3.50;;;2.40;;
68653;SDS011;55636;51.108;13.622;2024-02-14T05:22:58;3.60;;;2.43;;
68653;SDS011;55636;51.108;13.622;2024-02-14T05:24:00;2.60;;;2.40;;
68653;SDS011;55636;51.108;13.622;2024-02-14T05:25:04;3.23;;;2.53;;
68653;SDS011;55636;51.108;13.622;2024-02-14T05:26:07;3.83;;;2.67;;
68653;SDS011;55636;51.108;13.622;2024-02-14T05:27:09;2.50;;;2.30;;
68653;SDS011;55636;51.108;13.622;2024-02-14T05:28:12;3.50;;;2.80;;
68653;SDS011;55636;51.108;13.622;2024-02-14T05:29:16;2.67;;;2.30;;
68653;SDS011;55636;51.108;13.622;2024-02-14T05:30:20;3.03;;;2.40;;
68653;SDS011;55636;51.108;13.622;2024-02-14T05:31:23;2.60;;;2.40;;
68653;SDS011;55636;51.108;13.622;2024-02-14T05:32:26;4.97;;;2.53;;
68653;SDS011;55636;51.108;13.622;2024-02-14T05:33:28;4.83;;;2.60;;
68653;SDS011;55636;51.108;13.622;2024-02-14T05:34:31;3.37;;;2.73;;
68653;SDS011;55636;51.108;13.622;2024-02-14T05:35:34;3.73;;;2.70;;
68653;SDS011;55636;51.108;13.622;2024-02-14T05:36:36;3.40;;;2.60;;
68653;SDS011;55636;51.108;13.622;2024-02-14T05:37:38;3.17;;;2.80;;
68653;SDS011;55636;51.108;13.622;2024-02-14T05:38:41;4.77;;;3.20;;
68653;SDS011;55636;51.108;13.622;2024-02-14T05:39:43;4.63;;;3.50;;
68653;SDS011;55636;51.108;13.622;2024-02-14T05:40:46;5.87;;;3.87;;
68653;SDS011;55636;51.108;13.622;2024-02-14T05:41:50;4.80;;;3.93;;
68653;SDS011;55636;51.108;13.622;2024-02-14T05:42:53;5.87;;;4.00;;
68653;SDS011;55636;51.108;13.622;2024-02-14T05:43:55;5.60;;;3.80;;
68653;SDS011;55636;51.108;13.622;2024-02-14T05:44:58;5.90;;;3.70;;
68653;SDS011;55636;51.108;13.622;2024-02-14T05:46:00;4.50;;;3.20;;
68653;SDS011;55636;51.108;13.622;2024-02-14T05:47:03;3.50;;;3.20;;
68653;SDS011;55636;51.108;13.622;2024-02-14T05:48:05;3.63;;;3.20;;
68653;SDS011;55636;51.108;13.622;2024-02-14T05:49:08;4.40;;;3.23;;
68653;SDS011;55636;51.108;13.622;2024-02-14T05:50:11;3.50;;;3.20;;
68653;SDS011;55636;51.108;13.622;2024-02-14T05:51:15;3.40;;;3.10;;
68653;SDS011;55636;51.108;13.622;2024-02-14T05:52:17;4.60;;;3.53;;
68653;SDS011;55636;51.108;13.622;2024-02-14T05:53:21;4.33;;;3.43;;
68653;SDS011;55636;51.108;13.622;2024-02-14T05:54:23;4.30;;;3.37;;
68653;SDS011;55636;51.108;13.622;2024-02-14T05:55:27;4.10;;;3.33;;
68653;SDS011;55636;51.108;13.622;2024-02-14T05:56:29;5.37;;;3.70;;
68653;SDS011;55636;51.108;13.622;2024-02-14T05:57:32;5.87;;;3.67;;
68653;SDS011;55636;51.108;13.622;2024-02-14T05:58:34;4.13;;;3.73;;
68653;SDS011;55636;51.108;13.622;2024-02-14T05:59:37;4.00;;;3.60;;
68653;SDS011;55636;51.108;13.622;2024-02-14T06:00:40;4.63;;;3.50;;
68653;SDS011;55636;51.108;13.622;2024-02-14T06:01:43;3.53;;;3.23;;
68653;SDS011;55636;51.108;13.622;2024-02-14T06:02:46;4.73;;;3.63;;
68653;SDS011;55636;51.108;13.622;2024-02-14T06:03:49;3.87;;;3.47;;
68653;SDS011;55636;51.108;13.622;2024-02-14T06:04:51;4.00;;;3.53;;
68653;SDS011;55636;51.108;13.622;2024-02-14T06:05:54;3.90;;;3.27;;
68653;SDS011;55636;51.108;13.622;2024-02-14T06:06:57;4.03;;;3.47;;
68653;SDS011;55636;51.108;13.622;2024-02-14T06:07:59;5.10;;;3.47;;
68653;SDS011;55636;51.108;13.622;2024-02-14T06:09:05;4.23;;;3.40;;
68653;SDS011;55636;51.108;13.622;2024-02-14T06:10:12;3.80;;;3.37;;
68653;SDS011;55636;51.108;13.622;2024-02-14T06:11:14;4.13;;;3.60;;
68653;SDS011;55636;51.108;13.622;2024-02-14T06:12:18;4.83;;;3.87;;
68653;SDS011;55636;51.108;13.622;2024-02-14T06:13:20;4.13;;;3.40;;
68653;SDS011;55636;51.108;13.622;2024-02-14T06:14:23;4.20;;;3.40;;